createdAt,value
2022-10-29T00:00:53.226Z,17.44
2022-10-29T00:03:21.797Z,17.61
2022-10-29T00:06:00.064Z,17.67
2022-10-29T00:08:28.156Z,17.66
2022-10-29T00:10:55.044Z,17.72
2022-10-29T00:13:21.850Z,17.71
2022-10-29T00:15:48.731Z,17.77
2022-10-29T00:18:15.547Z,17.64
2022-10-29T00:20:42.483Z,17.59
2022-10-29T00:23:09.309Z,17.47
2022-10-29T00:25:36.160Z,17.61
2022-10-29T00:28:02.931Z,17.55
2022-10-29T00:30:29.737Z,17.49
2022-10-29T00:32:56.955Z,17.46
2022-10-29T00:35:24.022Z,17.33
2022-10-29T00:37:51.149Z,17.12
2022-10-29T00:40:18.920Z,17.19
2022-10-29T00:42:45.715Z,17.02
2022-10-29T00:45:20.331Z,17.24
2022-10-29T00:47:52.063Z,17.30
2022-10-29T00:50:20.466Z,17.22
2022-10-29T00:52:50.123Z,17.15
2022-10-29T00:55:19.967Z,17.17
2022-10-29T00:57:51.946Z,17.20
2022-10-29T01:00:20.991Z,17.22
2022-10-29T01:02:48.361Z,17.10
2022-10-29T01:05:23.170Z,17.14
2022-10-29T01:07:49.966Z,17.08
2022-10-29T01:10:20.313Z,17.05
2022-10-29T01:13:07.441Z,16.92
2022-10-29T01:16:01.077Z,17.06
2022-10-29T01:18:33.972Z,16.95
2022-10-29T01:21:28.076Z,16.80
2022-10-29T01:24:06.899Z,16.51
2022-10-29T01:27:05.718Z,16.63
2022-10-29T01:29:54.275Z,16.64
2022-10-29T01:32:42.455Z,16.74
2022-10-29T01:35:25.158Z,16.58
2022-10-29T01:38:14.697Z,16.13
2022-10-29T01:41:07.690Z,16.24
2022-10-29T01:43:55.814Z,16.49
2022-10-29T01:46:33.999Z,16.92
2022-10-29T01:49:07.419Z,16.74
2022-10-29T01:51:36.684Z,16.61
2022-10-29T01:54:08.711Z,16.42
2022-10-29T01:56:35.703Z,16.91
2022-10-29T01:59:14.369Z,16.53
2022-10-29T02:02:11.613Z,16.58
2022-10-29T02:04:57.560Z,16.87
2022-10-29T02:07:24.303Z,17.00
2022-10-29T02:10:00.200Z,16.20
2022-10-29T02:12:39.041Z,16.72
2022-10-29T02:15:17.977Z,16.97
2022-10-29T02:17:45.118Z,17.00
2022-10-29T02:20:14.169Z,16.97
2022-10-29T02:22:41.374Z,16.71
2022-10-29T02:25:09.433Z,16.95
2022-10-29T02:27:36.478Z,16.73
2022-10-29T02:30:04.095Z,16.68
2022-10-29T02:32:32.587Z,16.65
2022-10-29T02:35:01.052Z,16.49
2022-10-29T02:37:28.083Z,16.47
2022-10-29T02:39:54.885Z,16.00
2022-10-29T02:42:22.464Z,16.25
2022-10-29T02:44:49.258Z,16.21
2022-10-29T02:47:16.045Z,16.17
2022-10-29T02:49:42.805Z,16.04
2022-10-29T02:52:09.662Z,16.23
2022-10-29T02:54:36.486Z,15.98
2022-10-29T02:57:03.382Z,16.41
2022-10-29T02:59:30.170Z,16.40
2022-10-29T03:01:57.064Z,16.43
2022-10-29T03:04:24.049Z,16.71
2022-10-29T03:06:51.967Z,16.69
2022-10-29T03:09:18.763Z,16.56
2022-10-29T03:11:45.539Z,16.20
2022-10-29T03:14:12.367Z,15.10
2022-10-29T03:16:39.143Z,14.83
2022-10-29T03:19:05.992Z,15.54
2022-10-29T03:21:32.769Z,15.67
2022-10-29T03:23:59.764Z,15.77
2022-10-29T03:26:26.611Z,14.98
2022-10-29T03:28:53.421Z,14.83
2022-10-29T03:31:20.794Z,15.07
2022-10-29T03:33:47.615Z,14.81
2022-10-29T03:36:14.537Z,15.00
2022-10-29T03:38:41.387Z,15.07
2022-10-29T03:41:10.608Z,15.40
2022-10-29T03:43:38.737Z,14.95
2022-10-29T03:46:06.424Z,15.29
2022-10-29T03:48:34.067Z,15.39
2022-10-29T03:51:05.829Z,15.67
2022-10-29T03:53:34.123Z,15.34
2022-10-29T03:56:00.999Z,15.55
2022-10-29T03:58:28.227Z,15.65
2022-10-29T04:01:03.253Z,16.06
2022-10-29T04:03:31.534Z,15.91
2022-10-29T04:05:59.867Z,15.73
2022-10-29T04:08:26.723Z,16.06
2022-10-29T04:10:54.039Z,15.82
2022-10-29T04:13:21.045Z,15.68
2022-10-29T04:15:47.911Z,15.90
2022-10-29T04:18:14.665Z,15.80
2022-10-29T04:21:05.961Z,15.84
2022-10-29T04:29:03.555Z,16.40
2022-10-29T04:31:30.322Z,16.38
2022-10-29T04:33:57.171Z,16.22
2022-10-29T04:36:24.042Z,15.68
2022-10-29T04:38:51.042Z,15.08
2022-10-29T04:41:17.846Z,14.60
2022-10-29T04:43:44.603Z,14.67
2022-10-29T04:46:11.608Z,14.96
2022-10-29T04:48:38.623Z,15.18
2022-10-29T04:51:05.716Z,15.07
2022-10-29T04:53:32.864Z,15.00
2022-10-29T04:56:01.486Z,14.96
2022-10-29T04:58:28.981Z,15.51
2022-10-29T05:01:05.210Z,15.36
2022-10-29T05:03:33.206Z,14.85
2022-10-29T05:06:03.447Z,15.32
2022-10-29T05:08:30.308Z,15.32
2022-10-29T05:10:57.325Z,15.18
2022-10-29T05:13:24.061Z,14.89
2022-10-29T05:15:53.459Z,15.45
2022-10-29T05:18:21.096Z,15.57
2022-10-29T05:20:47.925Z,15.66
2022-10-29T05:23:15.255Z,15.69
2022-10-29T05:25:42.248Z,15.82
2022-10-29T05:28:14.416Z,15.94
2022-10-29T05:30:41.845Z,16.49
2022-10-29T05:33:09.480Z,16.35
2022-10-29T05:35:36.542Z,16.59
2022-10-29T05:38:04.093Z,16.41
2022-10-29T05:40:31.139Z,17.12
2022-10-29T05:42:58.480Z,17.09
2022-10-29T05:45:25.645Z,16.67
2022-10-29T05:48:00.362Z,16.70
2022-10-29T05:50:28.350Z,16.41
2022-10-29T05:52:59.672Z,17.05
2022-10-29T05:55:27.642Z,17.47
2022-10-29T05:57:58.759Z,17.37
2022-10-29T06:00:27.300Z,17.54
2022-10-29T06:02:54.405Z,16.82
2022-10-29T06:05:22.196Z,16.99
2022-10-29T06:07:59.714Z,16.87
2022-10-29T06:10:29.163Z,16.93
2022-10-29T06:12:56.105Z,16.98
2022-10-29T06:15:23.272Z,16.30
2022-10-29T06:17:50.394Z,16.22
2022-10-29T06:20:21.205Z,16.56
2022-10-29T06:22:48.395Z,16.66
2022-10-29T06:25:15.279Z,16.24
2022-10-29T06:27:42.030Z,16.45
2022-10-29T06:30:09.389Z,16.89
2022-10-29T06:32:36.243Z,17.06
2022-10-29T06:35:03.030Z,16.38
2022-10-29T06:37:33.210Z,15.68
2022-10-29T06:39:59.994Z,15.59
2022-10-29T06:42:26.766Z,16.20
2022-10-29T06:44:53.540Z,16.00
2022-10-29T06:47:20.287Z,16.00
2022-10-29T06:49:47.069Z,16.39
2022-10-29T06:52:13.912Z,15.95
2022-10-29T06:54:40.641Z,16.20
2022-10-29T06:57:07.398Z,16.48
2022-10-29T06:59:34.130Z,16.86
2022-10-29T07:02:01.061Z,16.72
2022-10-29T07:04:27.923Z,16.92
2022-10-29T07:06:54.727Z,14.30
2022-10-29T07:09:21.496Z,16.22
2022-10-29T07:11:48.326Z,15.87
2022-10-29T07:14:15.078Z,16.29
2022-10-29T07:16:41.906Z,17.15
2022-10-29T07:19:08.751Z,16.22
2022-10-29T07:21:35.508Z,15.48
2022-10-29T07:24:02.369Z,15.87
2022-10-29T07:26:29.153Z,16.05
2022-10-29T07:28:59.191Z,16.10
2022-10-29T07:31:25.945Z,16.40
2022-10-29T07:33:52.864Z,16.76
2022-10-29T07:36:19.735Z,16.96
2022-10-29T07:38:47.169Z,17.10
2022-10-29T07:41:14.120Z,17.05
2022-10-29T07:43:41.388Z,16.25
2022-10-29T07:46:08.190Z,16.30
2022-10-29T07:48:34.936Z,16.81
2022-10-29T07:51:02.298Z,17.49
2022-10-29T07:53:31.380Z,16.99
2022-10-29T07:56:00.557Z,17.33
2022-10-29T07:58:27.449Z,18.00
2022-10-29T08:00:54.414Z,18.24
2022-10-29T08:03:21.734Z,18.33
2022-10-29T08:05:55.392Z,17.91
2022-10-29T08:08:23.912Z,17.71
2022-10-29T08:10:50.697Z,18.13
2022-10-29T08:13:17.518Z,17.75
2022-10-29T08:15:46.860Z,17.95
2022-10-29T08:18:18.149Z,18.52
2022-10-29T08:20:45.887Z,18.11
2022-10-29T08:23:15.961Z,18.61
2022-10-29T08:25:43.145Z,18.84
2022-10-29T08:28:12.625Z,18.87
2022-10-29T08:30:40.325Z,18.89
2022-10-29T08:33:07.307Z,18.91
2022-10-29T08:35:34.234Z,19.16
2022-10-29T08:38:01.172Z,18.94
2022-10-29T08:40:43.540Z,18.90
2022-10-29T08:43:22.192Z,19.22
2022-10-29T08:45:51.998Z,18.93
2022-10-29T08:48:24.637Z,18.81
2022-10-29T08:50:58.597Z,18.80
2022-10-29T08:56:55.004Z,18.81
2022-10-29T08:59:24.285Z,19.28
2022-10-29T09:01:54.876Z,19.05
2022-10-29T09:04:36.280Z,19.25
2022-10-29T09:07:24.330Z,18.89
2022-10-29T09:10:04.310Z,18.88
2022-10-29T09:12:52.223Z,18.75
2022-10-29T09:15:38.685Z,19.15
2022-10-29T09:18:24.202Z,18.61
2022-10-29T09:21:28.877Z,19.29
2022-10-29T09:24:12.492Z,19.36
2022-10-29T09:26:57.494Z,19.08
2022-10-29T09:29:47.270Z,18.66
2022-10-29T09:32:18.138Z,18.70
2022-10-29T09:34:50.756Z,18.96
2022-10-29T09:37:28.310Z,19.03
2022-10-29T09:39:57.182Z,19.24
2022-10-29T09:42:35.604Z,19.34
2022-10-29T09:45:05.874Z,19.19
2022-10-29T09:47:50.543Z,19.18
2022-10-29T09:50:22.282Z,19.16
2022-10-29T09:52:49.664Z,18.17
2022-10-29T09:55:28.026Z,17.37
2022-10-29T09:57:57.071Z,18.08
2022-10-29T10:00:27.826Z,18.33
2022-10-29T10:03:21.964Z,18.54
2022-10-29T10:06:04.209Z,18.45
2022-10-29T10:08:34.840Z,18.52
2022-10-29T10:11:07.361Z,18.47
2022-10-29T10:13:36.577Z,18.69
2022-10-29T10:16:06.093Z,18.81
2022-10-29T10:18:33.104Z,18.81
2022-10-29T10:21:01.984Z,19.03
2022-10-29T10:23:42.846Z,19.18
2022-10-29T10:26:44.891Z,19.04
2022-10-29T10:29:18.840Z,19.24
2022-10-29T10:31:51.139Z,19.20
2022-10-29T10:34:22.242Z,19.49
2022-10-29T10:36:54.814Z,19.59
2022-10-29T10:39:28.186Z,19.50
2022-10-29T10:41:57.319Z,19.52
2022-10-29T10:44:24.536Z,19.53
2022-10-29T10:46:54.540Z,19.52
2022-10-29T10:49:31.227Z,19.51
2022-10-29T10:52:01.658Z,19.58
2022-10-29T10:54:41.880Z,19.69
2022-10-29T10:57:11.537Z,19.77
2022-10-29T10:59:56.380Z,19.81
2022-10-29T11:03:14.356Z,19.11
2022-10-29T11:06:10.264Z,19.70
2022-10-29T11:08:45.766Z,20.00
2022-10-29T11:11:21.706Z,20.18
2022-10-29T11:13:50.415Z,20.44
2022-10-29T11:16:46.899Z,20.53
2022-10-29T11:19:26.696Z,20.67
2022-10-29T11:22:02.557Z,20.68
2022-10-29T11:24:44.460Z,20.97
2022-10-29T11:27:24.075Z,20.71
2022-10-29T11:30:05.383Z,21.37
2022-10-29T11:32:41.314Z,21.24
2022-10-29T11:35:20.358Z,20.81
2022-10-29T11:38:00.048Z,21.02
2022-10-29T11:40:50.866Z,21.40
2022-10-29T11:43:19.800Z,21.47
2022-10-29T11:46:08.927Z,21.48
2022-10-29T11:48:56.373Z,21.66
2022-10-29T11:51:33.555Z,21.67
2022-10-29T11:54:22.207Z,21.66
2022-10-29T11:57:01.498Z,21.42
2022-10-29T12:00:00.592Z,21.23
2022-10-29T12:03:00.418Z,21.24
2022-10-29T12:05:41.387Z,21.40
2022-10-29T12:08:14.054Z,21.24
2022-10-29T12:11:05.544Z,21.19
2022-10-29T12:13:35.254Z,21.35
2022-10-29T12:16:07.868Z,21.49
2022-10-29T12:18:57.957Z,21.42
2022-10-29T12:22:09.040Z,21.47
2022-10-29T12:25:05.264Z,21.60
2022-10-29T12:27:44.936Z,21.80
2022-10-29T12:30:16.102Z,21.47
2022-10-29T12:33:25.233Z,21.36
2022-10-29T12:36:19.628Z,21.54
2022-10-29T12:38:54.646Z,21.49
2022-10-29T12:41:25.576Z,21.50
2022-10-29T12:44:01.408Z,21.76
2022-10-29T12:46:38.118Z,21.92
2022-10-29T12:49:21.158Z,21.71
2022-10-29T12:52:02.646Z,21.88
2022-10-29T12:54:51.438Z,22.17
2022-10-29T12:57:18.147Z,22.28
2022-10-29T12:59:45.549Z,22.19
2022-10-29T13:02:21.455Z,22.40
2022-10-29T13:05:06.985Z,22.19
2022-10-29T13:07:34.724Z,22.36
2022-10-29T13:10:32.290Z,22.83
2022-10-29T13:12:59.114Z,22.61
2022-10-29T13:15:31.812Z,22.59
2022-10-29T13:18:14.487Z,22.94
2022-10-29T13:20:50.607Z,22.83
2022-10-29T13:23:23.422Z,22.89
2022-10-29T13:25:55.137Z,22.80
2022-10-29T13:28:21.937Z,22.72
2022-10-29T13:31:13.144Z,22.46
2022-10-29T13:33:39.879Z,22.60
2022-10-29T13:36:15.666Z,22.65
2022-10-29T13:39:07.316Z,22.77
2022-10-29T13:41:42.353Z,23.27
2022-10-29T13:44:14.371Z,23.34
2022-10-29T13:46:47.394Z,23.04
2022-10-29T13:49:22.202Z,23.02
2022-10-29T13:51:54.604Z,23.04
2022-10-29T13:54:44.101Z,23.16
2022-10-29T13:57:42.503Z,23.17
2022-10-29T14:00:12.305Z,23.17
2022-10-29T14:02:42.211Z,23.21
2022-10-29T14:05:15.212Z,23.22
2022-10-29T14:08:14.123Z,22.88
2022-10-29T14:10:40.847Z,22.65
2022-10-29T14:13:13.737Z,22.56
2022-10-29T14:16:05.104Z,22.65
2022-10-29T14:18:34.096Z,22.40
2022-10-29T14:21:02.597Z,22.67
2022-10-29T14:23:31.749Z,22.79
2022-10-29T14:26:00.564Z,22.45
2022-10-29T14:28:31.926Z,22.48
2022-10-29T14:31:17.339Z,22.62
2022-10-29T14:33:46.106Z,22.64
2022-10-29T14:36:39.026Z,22.82
2022-10-29T14:39:16.897Z,22.78
2022-10-29T14:41:45.696Z,22.64
2022-10-29T14:44:19.685Z,22.68
2022-10-29T14:47:00.957Z,22.77
2022-10-29T14:49:28.840Z,22.88
2022-10-29T14:52:00.875Z,22.52
2022-10-29T14:54:34.302Z,22.27
2022-10-29T14:57:06.458Z,22.46
2022-10-29T14:59:35.631Z,22.19
2022-10-29T15:02:36.230Z,22.23
2022-10-29T15:05:01.854Z,22.21
2022-10-29T15:07:35.425Z,21.98
2022-10-29T15:10:08.067Z,21.96
2022-10-29T15:12:37.832Z,22.12
2022-10-29T15:15:18.300Z,22.35
2022-10-29T15:18:06.430Z,21.89
2022-10-29T15:20:42.022Z,22.12
2022-10-29T15:23:25.066Z,22.24
2022-10-29T15:25:58.763Z,22.10
2022-10-29T15:28:28.824Z,22.31
2022-10-29T15:30:56.035Z,22.42
2022-10-29T15:33:28.011Z,22.32
2022-10-29T15:36:01.935Z,22.32
2022-10-29T15:38:28.769Z,22.24
2022-10-29T15:41:29.919Z,22.20
2022-10-29T15:43:58.688Z,22.12
2022-10-29T15:46:28.802Z,22.09
2022-10-29T15:48:55.911Z,22.11
2022-10-29T15:51:28.379Z,21.72
2022-10-29T15:53:56.307Z,21.81
2022-10-29T15:56:24.317Z,21.79
2022-10-29T15:58:52.520Z,21.70
2022-10-29T16:01:19.426Z,21.58
2022-10-29T16:03:46.334Z,21.55
2022-10-29T16:06:15.836Z,21.46
2022-10-29T16:08:47.702Z,21.51
2022-10-29T16:11:16.622Z,21.52
2022-10-29T16:13:43.421Z,21.49
2022-10-29T16:16:16.001Z,21.42
2022-10-29T16:18:44.012Z,21.53
2022-10-29T16:21:14.725Z,21.44
2022-10-29T16:23:41.688Z,21.32
2022-10-29T16:26:16.857Z,21.43
2022-10-29T16:28:43.780Z,21.09
2022-10-29T16:31:23.293Z,20.66
2022-10-29T16:33:52.783Z,20.84
2022-10-29T16:36:20.141Z,20.78
2022-10-29T16:38:46.897Z,20.76
2022-10-29T16:41:15.283Z,20.72
2022-10-29T16:43:42.591Z,20.95
2022-10-29T16:46:10.136Z,20.94
2022-10-29T16:48:37.039Z,21.12
2022-10-29T16:51:04.587Z,21.10
2022-10-29T16:53:31.480Z,20.96
2022-10-29T16:55:58.414Z,20.81
2022-10-29T16:58:25.234Z,20.95
2022-10-29T17:01:01.887Z,20.82
2022-10-29T17:03:28.851Z,20.91
2022-10-29T17:05:55.698Z,20.89
2022-10-29T17:08:22.650Z,20.93
2022-10-29T17:10:49.523Z,20.70
2022-10-29T17:13:16.327Z,20.78
2022-10-29T17:15:43.139Z,20.85
2022-10-29T17:18:10.083Z,20.93
2022-10-29T17:20:37.047Z,20.90
2022-10-29T17:23:03.897Z,20.88
2022-10-29T17:25:30.799Z,21.04
2022-10-29T17:27:58.036Z,20.96
2022-10-29T17:30:25.191Z,20.69
2022-10-29T17:32:52.063Z,20.53
2022-10-29T17:35:18.866Z,20.59
2022-10-29T17:37:45.734Z,20.45
2022-10-29T17:40:13.199Z,20.60
2022-10-29T17:42:40.086Z,20.61
2022-10-29T17:45:07.641Z,20.50
2022-10-29T17:47:34.509Z,20.42
2022-10-29T17:50:01.370Z,20.72
2022-10-29T17:52:28.192Z,20.54
2022-10-29T17:54:55.046Z,20.56
2022-10-29T17:57:21.844Z,20.72
2022-10-29T17:59:48.707Z,20.84
2022-10-29T18:02:15.660Z,20.58
2022-10-29T18:04:42.620Z,20.47
2022-10-29T18:07:09.420Z,20.58
2022-10-29T18:09:36.316Z,20.29
2022-10-29T18:12:03.303Z,20.11
2022-10-29T18:14:30.122Z,20.28
2022-10-29T18:16:57.015Z,20.29
2022-10-29T18:19:23.888Z,20.32
2022-10-29T18:21:50.732Z,20.17
2022-10-29T18:24:19.426Z,20.24
2022-10-29T18:26:50.235Z,20.26
2022-10-29T18:29:17.357Z,20.59
2022-10-29T18:31:47.070Z,20.71
2022-10-29T18:34:15.321Z,20.80
2022-10-29T18:36:43.225Z,20.56
2022-10-29T18:39:10.245Z,20.45
2022-10-29T18:41:37.067Z,20.48
2022-10-29T18:44:04.310Z,20.33
2022-10-29T18:46:31.441Z,20.45
2022-10-29T18:49:00.160Z,20.40
2022-10-29T18:51:29.553Z,20.35
2022-10-29T18:54:00.685Z,20.21
2022-10-29T18:56:29.406Z,20.00
2022-10-29T18:58:57.623Z,20.05
2022-10-29T19:01:27.517Z,19.95
2022-10-29T19:03:56.884Z,19.71
2022-10-29T19:06:25.728Z,20.25
2022-10-29T19:08:52.912Z,20.57
2022-10-29T19:11:22.231Z,20.53
2022-10-29T19:14:00.386Z,20.32
2022-10-29T19:16:28.195Z,20.28
2022-10-29T19:19:00.591Z,20.16
2022-10-29T19:21:27.750Z,20.17
2022-10-29T19:23:59.756Z,20.18
2022-10-29T19:26:28.653Z,20.30
2022-10-29T19:28:55.972Z,20.01
2022-10-29T19:31:26.610Z,20.11
2022-10-29T19:33:59.083Z,19.99
2022-10-29T19:36:27.255Z,20.06
2022-10-29T19:38:54.539Z,19.87
2022-10-29T19:41:21.438Z,20.02
2022-10-29T19:43:48.304Z,19.97
2022-10-29T19:46:17.643Z,19.90
2022-10-29T19:48:50.359Z,20.02
2022-10-29T19:51:17.336Z,20.02
2022-10-29T19:53:44.172Z,20.12
2022-10-29T19:56:13.199Z,20.12
2022-10-29T19:58:40.165Z,20.11
2022-10-29T20:01:12.268Z,19.79
2022-10-29T20:03:39.195Z,19.71
2022-10-29T20:06:09.076Z,19.96
2022-10-29T20:08:39.217Z,19.87
2022-10-29T20:11:09.389Z,19.88
2022-10-29T20:13:36.849Z,19.62
2022-10-29T20:16:11.816Z,19.48
2022-10-29T20:18:38.604Z,19.34
2022-10-29T20:23:38.033Z,19.36
2022-10-29T20:26:05.512Z,19.33
2022-10-29T20:28:32.372Z,19.33
2022-10-29T20:31:38.544Z,19.25
2022-10-29T20:34:09.438Z,19.23
2022-10-29T20:36:36.357Z,19.17
2022-10-29T20:39:03.555Z,19.08
2022-10-29T20:41:30.502Z,19.03
2022-10-29T20:43:59.746Z,18.95
2022-10-29T20:46:27.367Z,18.92
2022-10-29T20:48:54.508Z,18.90
2022-10-29T20:51:22.848Z,18.85
2022-10-29T20:53:50.378Z,18.81
2022-10-29T20:56:18.922Z,18.88
2022-10-29T20:58:45.846Z,18.85
2022-10-29T21:01:15.643Z,18.82
2022-10-29T21:03:43.591Z,18.80
2022-10-29T21:06:16.924Z,19.13
2022-10-29T21:08:48.663Z,19.21
2022-10-29T21:11:17.498Z,19.05
2022-10-29T21:13:44.820Z,18.91
2022-10-29T21:16:22.580Z,18.61
2022-10-29T21:18:52.400Z,18.75
2022-10-29T21:21:19.724Z,18.63
2022-10-29T21:23:46.589Z,18.67
2022-10-29T21:26:16.119Z,18.61
2022-10-29T21:28:43.404Z,18.82
2022-10-29T21:31:10.325Z,18.71
2022-10-29T21:33:37.771Z,18.62
2022-10-29T21:36:05.702Z,18.57
2022-10-29T21:38:33.562Z,18.65
2022-10-29T21:41:03.364Z,18.67
2022-10-29T21:43:30.570Z,18.93
2022-10-29T21:45:57.914Z,18.83
2022-10-29T21:48:28.846Z,18.77
2022-10-29T21:51:12.437Z,18.59
2022-10-29T21:53:39.442Z,18.83
2022-10-29T21:56:08.565Z,18.74
2022-10-29T21:58:35.427Z,18.58
2022-10-29T22:01:08.260Z,18.57
2022-10-29T22:03:38.158Z,18.62
2022-10-29T22:06:30.623Z,18.47
2022-10-29T22:08:59.284Z,18.72
2022-10-29T22:11:28.248Z,18.70
2022-10-29T22:13:55.351Z,18.70
2022-10-29T22:16:22.668Z,18.92
2022-10-29T22:18:50.034Z,19.05
2022-10-29T22:21:23.309Z,18.85
2022-10-29T22:23:52.524Z,18.72
2022-10-29T22:26:21.506Z,18.65
2022-10-29T22:28:48.528Z,18.72
2022-10-29T22:31:16.961Z,18.60
2022-10-29T22:33:44.943Z,18.49
2022-10-29T22:36:17.424Z,18.54
2022-10-29T22:38:44.729Z,18.50
2022-10-29T22:41:16.567Z,18.30
2022-10-29T22:43:44.770Z,18.57
2022-10-29T22:46:18.896Z,18.18
2022-10-29T22:48:46.012Z,18.25
2022-10-29T22:51:14.608Z,18.53
2022-10-29T22:53:41.941Z,18.79
2022-10-29T22:56:14.187Z,18.67
2022-10-29T22:58:41.346Z,18.69
2022-10-29T23:01:14.830Z,18.81
2022-10-29T23:03:42.218Z,18.52
2022-10-29T23:06:11.528Z,18.65
2022-10-29T23:08:38.667Z,18.44
2022-10-29T23:11:21.817Z,18.59
2022-10-29T23:13:50.689Z,18.40
2022-10-29T23:16:17.763Z,18.67
2022-10-29T23:18:51.673Z,18.41
2022-10-29T23:21:19.400Z,18.50
2022-10-29T23:23:46.809Z,18.46
2022-10-29T23:26:15.151Z,18.48
2022-10-29T23:28:45.741Z,18.70
2022-10-29T23:31:15.396Z,18.78
2022-10-29T23:33:46.648Z,18.63
2022-10-29T23:36:14.749Z,18.35
2022-10-29T23:38:42.093Z,18.46
2022-10-29T23:41:09.004Z,18.17
2022-10-29T23:43:35.860Z,18.15
2022-10-29T23:46:03.117Z,18.17
2022-10-29T23:48:30.020Z,17.96
2022-10-29T23:50:57.593Z,18.29
2022-10-29T23:53:24.783Z,18.11
2022-10-29T23:55:51.884Z,17.99
2022-10-29T23:58:21.273Z,17.38
